Time;durP1;ratioP1;P1;durP2;ratioP2;P2;SDS_P1;SDS_P2;PMS_P1;PMS_P2;Temp;Humidity;BMP_temperature;BMP_pressure;BME280_temperature;BME280_humidity;BME280_pressure;Samples;Min_cycle;Max_cycle;Signal;HPM_P1;HPM_P2
2022/02/07 00:00:08;;;;;;;13.18;2.45;;;;;;;3.84;100.00;100997.69;5116052;27;20387;-74
2022/02/07 00:03:02;;;;;;;14.90;4.80;;;;;;;3.90;100.00;101021.44;5117273;27;20051;-74
2022/02/07 00:05:30;;;;;;;9.57;2.17;;;;;;;3.50;100.00;101036.44;5116999;27;20047;-73
2022/02/07 00:07:59;;;;;;;9.32;2.42;;;;;;;3.34;100.00;101046.09;5118090;27;20592;-73
2022/02/07 00:10:28;;;;;;;10.50;2.25;;;;;;;3.25;100.00;101040.81;5114931;27;20058;-73
2022/02/07 00:12:55;;;;;;;14.88;2.35;;;;;;;3.19;100.00;101044.31;5117451;27;20528;-74
2022/02/07 00:15:24;;;;;;;9.20;2.17;;;;;;;3.15;100.00;101059.25;5115786;27;20096;-73
2022/02/07 00:17:51;;;;;;;4.90;1.95;;;;;;;3.24;100.00;101057.53;5114519;27;20134;-73
2022/02/07 00:20:21;;;;;;;7.85;1.70;;;;;;;3.25;100.00;101062.81;5115756;27;20142;-72
2022/02/07 00:22:50;;;;;;;13.38;2.55;;;;;;;3.28;100.00;101068.06;5115169;27;20084;-72
2022/02/07 00:25:21;;;;;;;11.50;2.65;;;;;;;3.38;100.00;101074.25;5116595;27;20069;-71
2022/02/07 00:27:49;;;;;;;6.95;1.98;;;;;;;3.39;100.00;101077.75;5115534;27;20067;-72
2022/02/07 00:30:20;;;;;;;8.93;1.95;;;;;;;3.49;100.00;101090.06;5117754;27;20664;-72
2022/02/07 00:32:49;;;;;;;14.57;3.00;;;;;;;3.56;100.00;101097.13;5115351;27;20080;-72
2022/02/07 00:35:20;;;;;;;15.90;3.20;;;;;;;3.57;100.00;101100.66;5116573;27;20051;-72
2022/02/07 00:37:51;;;;;;;14.10;2.58;;;;;;;3.58;100.00;101102.41;5117791;27;20061;-73
2022/02/07 00:43:27;;;;;;;26.20;3.38;;;;;;;3.75;100.00;101105.94;5079943;27;20521;-72
2022/02/07 00:45:58;;;;;;;8.35;3.20;;;;;;;4.03;100.00;101120.00;5115214;27;20234;-74
2022/02/07 00:48:26;;;;;;;9.27;4.03;;;;;;;4.09;100.00;101132.34;5115839;27;20055;-74
2022/02/07 00:50:56;;;;;;;19.10;3.67;;;;;;;4.06;100.00;101141.13;5116992;27;20545;-73
2022/02/07 00:53:24;;;;;;;8.27;2.38;;;;;;;3.98;100.00;101158.72;5114064;27;20118;-72
2022/02/07 00:55:54;;;;;;;7.63;2.38;;;;;;;4.03;100.00;101164.03;5117784;27;20487;-72
2022/02/07 00:58:22;;;;;;;11.60;3.22;;;;;;;4.14;100.00;101169.28;5116102;27;20047;-73
2022/02/07 01:00:52;;;;;;;11.90;4.00;;;;;;;4.12;100.00;101177.25;5119483;27;20043;-73
2022/02/07 01:03:20;;;;;;;14.63;3.28;;;;;;;4.12;100.00;101187.81;5116017;27;20051;-73
2022/02/07 01:05:48;;;;;;;8.20;2.78;;;;;;;4.21;100.00;101181.63;5118851;27;20287;-75
2022/02/07 01:08:19;;;;;;;16.50;3.58;;;;;;;4.18;100.00;101179.88;5114890;27;20079;-74
2022/02/07 01:11:00;;;;;;;13.05;2.92;;;;;;;4.40;100.00;101183.38;5117507;27;20138;-70
2022/02/07 01:14:08;;;;;;;11.55;2.97;;;;;;;4.37;100.00;101206.28;5100147;27;20677;-69
2022/02/07 01:16:49;;;;;;;9.65;3.08;;;;;;;4.37;100.00;101217.72;5114284;27;20244;-74
2022/02/07 01:22:19;;;;;;;12.27;4.78;;;;;;;4.27;100.00;101250.31;5098057;27;20121;-75
2022/02/07 01:46:32;;;;;;;19.98;3.45;;;;;;;4.40;100.00;101368.34;5117822;27;20048;-69
2022/02/07 01:49:40;;;;;;;11.88;2.65;;;;;;;4.47;100.00;101385.09;5118454;27;20039;-68
2022/02/07 01:52:23;;;;;;;10.50;2.42;;;;;;;4.56;100.00;101393.03;5116051;27;20047;-75
2022/02/07 01:55:04;;;;;;;11.75;2.63;;;;;;;4.42;100.00;101411.50;5120347;27;20522;-76
2022/02/07 01:57:32;;;;;;;12.35;2.65;;;;;;;4.32;100.00;101406.19;5118785;27;20162;-75
2022/02/07 02:00:01;;;;;;;9.65;2.25;;;;;;;4.29;100.00;101422.91;5120197;27;20047;-76
2022/02/07 02:02:28;;;;;;;10.98;2.58;;;;;;;4.21;100.00;101433.47;5120569;27;20058;-76
2022/02/07 02:04:56;;;;;;;15.13;2.70;;;;;;;4.26;100.00;101429.09;5118214;27;20511;-77
2022/02/07 02:07:27;;;;;;;14.73;2.97;;;;;;;4.27;100.00;101435.25;5117122;27;20048;-70
2022/02/07 02:10:19;;;;;;;8.20;2.28;;;;;;;4.33;100.00;101432.63;5120027;27;20063;-70
2022/02/07 02:12:56;;;;;;;16.83;3.10;;;;;;;4.18;100.00;101456.34;5115975;27;20086;-76
2022/02/07 02:15:35;;;;;;;11.48;3.25;;;;;;;4.29;100.00;101454.63;5118475;27;20159;-76
2022/02/07 02:38:06;;;;;;;12.25;3.67;;;;;;;4.32;100.00;101507.47;5119673;27;20051;-71
2022/02/07 02:46:26;;;;;;;10.77;3.15;;;;;;;4.50;100.00;101533.13;5116870;27;20079;-72
2022/02/07 02:49:02;;;;;;;6.03;2.05;;;;;;;4.41;100.00;101539.25;5115871;27;20055;-70
2022/02/07 02:51:36;;;;;;;10.27;2.75;;;;;;;4.48;100.00;101541.03;5117255;27;20131;-71
2022/02/07 02:57:07;;;;;;;11.68;2.80;;;;;;;4.54;100.00;101536.66;5119975;27;20043;-72
2022/02/07 02:59:38;;;;;;;13.98;3.42;;;;;;;4.53;100.00;101561.31;5118949;27;20043;-72
2022/02/07 03:02:11;;;;;;;20.40;3.08;;;;;;;4.49;100.00;101571.88;5118765;27;20073;-71
2022/02/07 03:04:53;;;;;;;9.23;2.20;;;;;;;4.52;100.00;101576.28;5116812;27;21374;-71
2022/02/07 03:07:50;;;;;;;11.70;2.53;;;;;;;4.47;100.00;101592.09;5120753;27;20491;-71
2022/02/07 03:10:29;;;;;;;11.48;3.22;;;;;;;4.53;100.00;101583.34;5116900;27;20043;-70
2022/02/07 03:13:09;;;;;;;14.88;3.03;;;;;;;4.59;100.00;101593.94;5100822;27;20501;-77
2022/02/07 03:18:24;;;;;;;20.83;3.53;;;;;;;4.55;100.00;101612.44;5116326;27;20138;-77
2022/02/07 03:20:53;;;;;;;12.70;2.80;;;;;;;4.58;100.00;101612.44;5112523;27;20052;-76
2022/02/07 03:23:21;;;;;;;12.88;2.55;;;;;;;4.52;100.00;101623.88;5115325;27;20538;-77
2022/02/07 03:25:49;;;;;;;10.55;3.45;;;;;;;4.51;100.00;101637.06;5117939;27;20142;-77
2022/02/07 03:28:20;;;;;;;13.93;3.53;;;;;;;4.55;100.00;101636.22;5116556;27;20432;-77
2022/02/07 03:30:48;;;;;;;14.43;2.47;;;;;;;4.53;100.00;101636.22;5116164;27;20044;-76
2022/02/07 03:33:16;;;;;;;10.75;2.05;;;;;;;4.59;100.00;101654.72;5116727;27;20256;-76
2022/02/07 03:35:44;;;;;;;10.05;3.33;;;;;;;4.56;100.00;101665.28;5117752;27;20043;-76
2022/02/07 03:38:12;;;;;;;10.07;2.63;;;;;;;4.62;100.00;101685.59;5116646;27;20048;-78
2022/02/07 03:40:41;;;;;;;15.60;2.92;;;;;;;4.61;100.00;101689.13;5116784;27;20321;-76
2022/02/07 03:43:08;;;;;;;13.27;3.00;;;;;;;4.66;100.00;101692.66;5116202;27;20553;-76
2022/02/07 03:45:38;;;;;;;14.18;2.88;;;;;;;4.62;100.00;101694.41;5115459;27;20047;-76
2022/02/07 03:48:06;;;;;;;12.60;2.63;;;;;;;4.72;100.00;101705.94;5116586;27;20039;-77
2022/02/07 03:50:35;;;;;;;8.38;2.15;;;;;;;4.69;100.00;101708.56;5116866;27;20525;-77
2022/02/07 03:53:04;;;;;;;15.98;3.88;;;;;;;4.72;100.00;101720.94;5115369;27;20051;-76
2022/02/07 03:55:33;;;;;;;14.00;3.08;;;;;;;4.72;100.00;101724.44;5117947;27;20074;-77
2022/02/07 03:58:00;;;;;;;22.35;3.80;;;;;;;4.69;100.00;101732.34;5115458;27;20047;-76
2022/02/07 04:00:31;;;;;;;19.13;2.90;;;;;;;4.76;100.00;101746.50;5117542;27;20398;-73
2022/02/07 04:03:14;;;;;;;12.52;3.35;;;;;;;4.75;100.00;101739.44;5112597;27;20055;-72
2022/02/07 04:05:54;;;;;;;18.85;3.40;;;;;;;4.62;100.00;101749.94;5099910;27;20051;-74
2022/02/07 04:11:41;;;;;;;17.77;3.10;;;;;;;4.65;100.00;101754.38;5113229;27;20062;-73
2022/02/07 04:15:06;;;;;;;12.75;2.53;;;;;;;4.75;100.00;101763.22;5115989;27;20051;-73
2022/02/07 04:18:12;;;;;;;17.90;3.42;;;;;;;4.75;100.00;101769.41;5114953;27;20050;-74
2022/02/07 04:20:45;;;;;;;14.73;2.53;;;;;;;4.70;100.00;101784.38;5114593;27;20047;-77
2022/02/07 04:23:13;;;;;;;14.80;2.80;;;;;;;4.75;100.00;101787.94;5115137;27;20053;-77
2022/02/07 04:25:41;;;;;;;16.60;3.47;;;;;;;4.67;100.00;101798.44;5116419;27;20143;-76
2022/02/07 04:28:08;;;;;;;17.35;4.03;;;;;;;4.77;100.00;101806.44;5114393;27;20574;-76
2022/02/07 04:30:36;;;;;;;10.52;3.60;;;;;;;4.71;100.00;101803.75;5118477;27;20153;-76
2022/02/07 04:33:04;;;;;;;11.73;3.40;;;;;;;4.78;100.00;101806.44;5116832;27;20145;-77
2022/02/07 04:35:32;;;;;;;15.98;2.78;;;;;;;4.76;100.00;101815.25;5114628;27;20278;-76
2022/02/07 04:38:07;;;;;;;14.70;3.40;;;;;;;4.81;100.00;101821.44;5119885;27;20046;-76
2022/02/07 04:40:35;;;;;;;12.63;2.90;;;;;;;4.83;100.00;101836.44;5116905;27;20092;-76
2022/02/07 04:43:04;;;;;;;9.80;2.72;;;;;;;4.80;100.00;101833.81;5117417;27;20082;-76
2022/02/07 04:45:43;;;;;;;16.05;3.42;;;;;;;4.82;100.00;101849.69;5113919;27;20083;-76
2022/02/07 04:48:32;;;;;;;18.88;3.67;;;;;;;4.82;100.00;101852.34;5115394;27;20059;-76
2022/02/07 04:51:27;;;;;;;12.25;3.17;;;;;;;4.89;100.00;101861.16;5114868;27;20059;-77
2022/02/07 04:54:16;;;;;;;17.00;2.90;;;;;;;4.84;100.00;101879.66;5117488;27;20078;-76
2022/02/07 04:59:44;;;;;;;12.43;3.45;;;;;;;4.94;100.00;101891.19;5121855;27;20104;-76
2022/02/07 05:02:21;;;;;;;15.20;3.80;;;;;;;4.90;100.00;101910.56;5119651;27;20055;-76
2022/02/07 05:04:56;;;;;;;16.80;4.13;;;;;;;4.90;100.00;101903.50;5123210;27;20051;-79
2022/02/07 05:13:59;;;;;;;14.77;3.28;;;;;;;4.92;100.00;101915.00;5122291;27;20099;-72
2022/02/07 05:16:43;;;;;;;21.02;3.65;;;;;;;4.89;100.00;101914.06;5118340;27;20058;-73
2022/02/07 05:19:34;;;;;;;15.60;3.25;;;;;;;4.90;100.00;101929.94;5115671;27;20054;-73
2022/02/07 05:22:17;;;;;;;17.30;3.53;;;;;;;4.86;100.00;101922.88;5120557;27;20047;-77
2022/02/07 05:27:42;;;;;;;13.65;3.65;;;;;;;4.85;100.00;101952.81;5117151;27;20290;-73
2022/02/07 05:30:29;;;;;;;22.80;4.18;;;;;;;4.90;100.00;101963.47;5116677;27;20051;-72
2022/02/07 05:33:39;;;;;;;8.90;2.35;;;;;;;4.84;100.00;101973.09;5118265;27;20043;-73
2022/02/07 05:36:51;;;;;;;11.40;3.20;;;;;;;4.86;100.00;101981.94;5117552;27;20512;-74
2022/02/07 05:42:38;;;;;;;16.13;5.18;;;;;;;4.91;100.00;101989.94;5120280;27;20224;-73
2022/02/07 05:48:22;;;;;;;17.40;3.78;;;;;;;4.88;100.00;101995.19;5114124;27;20051;-73
2022/02/07 05:50:54;;;;;;;21.45;3.92;;;;;;;4.91;100.00;101984.63;5100335;27;20070;-77
2022/02/07 05:53:22;;;;;;;10.90;3.30;;;;;;;4.89;100.00;101998.69;5121196;27;20092;-77
2022/02/07 05:55:50;;;;;;;14.05;2.90;;;;;;;4.86;100.00;101994.28;5120484;27;20049;-77
2022/02/07 05:58:18;;;;;;;15.48;3.08;;;;;;;4.86;100.00;102002.22;5119972;27;20072;-78
2022/02/07 06:00:47;;;;;;;19.30;3.17;;;;;;;4.85;100.00;102001.34;5122517;27;20051;-77
2022/02/07 06:03:15;;;;;;;16.67;3.03;;;;;;;4.85;100.00;102006.63;5120639;27;20043;-77
2022/02/07 06:05:53;;;;;;;19.00;3.67;;;;;;;4.81;100.00;102018.03;5117508;27;20134;-74
2022/02/07 06:09:07;;;;;;;17.88;3.70;;;;;;;4.82;100.00;102025.09;5117893;27;20043;-74
2022/02/07 06:15:03;;;;;;;15.80;3.15;;;;;;;4.84;100.00;102025.13;5102440;27;20449;-75
2022/02/07 06:18:22;;;;;;;17.73;3.05;;;;;;;4.78;100.00;102025.03;5117018;27;20502;-75
2022/02/07 06:27:04;;;;;;;13.43;3.45;;;;;;;4.61;100.00;102051.28;5115375;27;20150;-74
2022/02/07 06:29:58;;;;;;;20.13;3.58;;;;;;;4.60;100.00;102049.53;5117136;27;20046;-74
2022/02/07 06:33:44;;;;;;;15.10;2.97;;;;;;;4.65;100.00;102071.63;5113836;27;20055;-74
2022/02/07 06:36:30;;;;;;;11.60;2.50;;;;;;;4.67;100.00;102075.19;5111708;27;20048;-73
2022/02/07 06:41:53;;;;;;;16.92;3.72;;;;;;;4.68;100.00;102096.34;5085297;27;20078;-78
2022/02/07 06:44:26;;;;;;;16.65;3.78;;;;;;;4.72;100.00;102096.41;5117579;27;20573;-75
2022/02/07 06:46:55;;;;;;;26.20;3.88;;;;;;;4.74;100.00;102110.53;5119169;27;20429;-79
2022/02/07 06:49:25;;;;;;;13.13;3.00;;;;;;;4.75;100.00;102125.50;5119962;27;20047;-78
2022/02/07 06:51:53;;;;;;;18.38;3.20;;;;;;;4.79;100.00;102122.03;5118636;27;20054;-78
2022/02/07 06:54:21;;;;;;;13.88;3.72;;;;;;;4.76;100.00;102136.09;5116206;27;20143;-75
2022/02/07 06:56:50;;;;;;;20.05;3.22;;;;;;;4.81;100.00;102146.75;5120728;27;20058;-78
2022/02/07 06:59:20;;;;;;;22.25;4.00;;;;;;;4.81;100.00;102157.31;5118920;27;20047;-77
2022/02/07 07:01:48;;;;;;;18.10;3.35;;;;;;;4.83;100.00;102160.88;5119167;27;20044;-78
2022/02/07 07:04:16;;;;;;;15.38;3.10;;;;;;;4.87;100.00;102173.28;5119347;27;20049;-78
2022/02/07 07:06:45;;;;;;;19.27;3.83;;;;;;;4.83;100.00;102182.91;5117557;27;20070;-78
2022/02/07 07:09:13;;;;;;;18.17;3.15;;;;;;;4.85;100.00;102181.19;5117482;27;20051;-78
2022/02/07 07:11:42;;;;;;;19.67;3.75;;;;;;;4.92;100.00;102178.59;5119390;27;20055;-77
2022/02/07 07:14:17;;;;;;;18.90;3.78;;;;;;;4.86;100.00;102175.00;5117554;27;20063;-78
2022/02/07 07:16:51;;;;;;;21.65;4.15;;;;;;;4.95;100.00;102183.94;5120310;27;20446;-77
2022/02/07 07:19:20;;;;;;;12.65;2.85;;;;;;;4.92;100.00;102189.19;5116682;27;20062;-78
2022/02/07 07:21:49;;;;;;;18.73;4.10;;;;;;;4.92;100.00;102183.91;5119781;27;20055;-78
2022/02/07 07:24:17;;;;;;;17.92;3.72;;;;;;;4.90;100.00;102198.88;5118156;27;20518;-77
2022/02/07 07:26:45;;;;;;;17.83;3.75;;;;;;;4.91;100.00;102201.53;5119672;27;20050;-77
2022/02/07 07:29:17;;;;;;;19.77;3.50;;;;;;;4.90;100.00;102210.31;5114684;27;20691;-77
2022/02/07 07:31:46;;;;;;;12.15;3.63;;;;;;;4.94;100.00;102213.91;5116635;27;20048;-78
2022/02/07 07:34:16;;;;;;;21.02;4.07;;;;;;;5.00;100.00;102224.56;5118984;27;20043;-77
2022/02/07 07:36:47;;;;;;;13.15;3.13;;;;;;;4.99;100.00;102243.97;5118936;27;20058;-78
2022/02/07 07:39:17;;;;;;;22.75;3.63;;;;;;;4.95;100.00;102248.31;5118469;27;20568;-77
2022/02/07 07:41:47;;;;;;;16.33;2.80;;;;;;;5.03;100.00;102251.94;5117307;27;20239;-77
2022/02/07 07:44:17;;;;;;;22.35;3.35;;;;;;;5.03;100.00;102257.25;5121035;27;20111;-77
2022/02/07 07:46:46;;;;;;;23.30;4.28;;;;;;;5.03;100.00;102259.88;5117591;27;20494;-78
2022/02/07 07:49:18;;;;;;;20.60;3.15;;;;;;;5.02;100.00;102273.09;5116365;27;20051;-78
2022/02/07 07:51:53;;;;;;;11.57;3.17;;;;;;;5.06;100.00;102277.59;5119550;27;20069;-77
2022/02/07 07:54:29;;;;;;;11.95;2.75;;;;;;;5.09;100.00;102285.56;5116096;27;20191;-78
2022/02/07 08:02:30;;;;;;;15.63;3.38;;;;;;;5.11;100.00;102315.56;5115494;27;20431;-77
2022/02/07 08:05:04;;;;;;;13.50;3.58;;;;;;;5.03;100.00;102304.88;5117257;27;20082;-78
2022/02/07 08:07:37;;;;;;;16.05;3.15;;;;;;;4.98;100.00;102317.13;5118192;27;20079;-79
2022/02/07 08:10:41;;;;;;;16.00;3.00;;;;;;;4.93;100.00;102326.75;5117755;27;20186;-79
2022/02/07 08:13:15;;;;;;;15.70;4.23;;;;;;;4.92;100.00;102334.69;5118203;27;20487;-79
2022/02/07 08:15:43;;;;;;;17.17;3.70;;;;;;;4.92;100.00;102338.22;5114871;27;20288;-80
2022/02/07 08:18:12;;;;;;;16.80;3.50;;;;;;;4.95;100.00;102343.53;5118342;27;20558;-79
2022/02/07 08:21:05;;;;;;;19.90;3.58;;;;;;;4.97;100.00;102339.19;5114499;27;20050;-79
2022/02/07 08:23:33;;;;;;;18.10;3.15;;;;;;;4.95;100.00;102342.66;5116070;27;20099;-79
2022/02/07 08:26:04;;;;;;;13.10;3.05;;;;;;;4.98;100.00;102348.00;5118401;27;20439;-79
2022/02/07 08:28:45;;;;;;;16.83;3.97;;;;;;;4.98;100.00;102364.75;5116898;27;20051;-79
2022/02/07 08:31:13;;;;;;;14.95;3.13;;;;;;;5.03;100.00;102348.97;5116344;27;20062;-77
2022/02/07 08:33:41;;;;;;;20.23;3.00;;;;;;;5.07;100.00;102360.47;5117539;27;20099;-77
2022/02/07 08:36:08;;;;;;;16.38;3.00;;;;;;;5.13;100.00;102356.19;5118972;27;20183;-77
2022/02/07 08:38:36;;;;;;;17.05;4.07;;;;;;;5.13;100.00;102356.19;5118471;27;20151;-77
2022/02/07 08:41:05;;;;;;;21.95;3.45;;;;;;;5.18;100.00;102350.97;5115067;27;20113;-78
2022/02/07 08:43:33;;;;;;;20.73;3.40;;;;;;;5.22;100.00;102358.94;5118696;27;20097;-78
2022/02/07 08:46:25;;;;;;;12.60;3.90;;;;;;;5.28;100.00;102376.69;5113950;27;20500;-78
2022/02/07 08:48:54;;;;;;;20.40;3.30;;;;;;;5.28;100.00;102381.06;5115627;27;20080;-77
2022/02/07 08:51:21;;;;;;;17.30;3.42;;;;;;;5.22;100.00;102393.34;5120064;27;20486;-77
2022/02/07 08:53:50;;;;;;;22.30;3.17;;;;;;;5.23;100.00;102407.50;5117301;27;20130;-78
2022/02/07 08:56:30;;;;;;;16.25;3.40;;;;;;;5.24;100.00;102406.59;5114764;27;20597;-78
2022/02/07 08:58:58;;;;;;;17.58;3.42;;;;;;;5.28;100.00;102421.69;5113253;27;20134;-78
2022/02/07 09:01:43;;;;;;;14.85;3.40;;;;;;;5.32;100.00;102425.25;5117418;27;20066;-71
2022/02/07 09:07:25;;;;;;;21.85;4.40;;;;;;;5.47;100.00;102438.72;5115573;27;20042;-71
2022/02/07 09:09:59;;;;;;;15.77;4.30;;;;;;;5.45;100.00;102456.34;5113480;27;20092;-71
2022/02/07 09:15:41;;;;;;;21.13;3.72;;;;;;;5.44;100.00;102465.16;5116846;27;20051;-70
2022/02/07 09:18:37;;;;;;;21.55;3.92;;;;;;;5.46;100.00;102471.34;5111463;27;20134;-71
2022/02/07 09:21:28;;;;;;;16.02;3.75;;;;;;;5.41;100.00;102480.97;5096819;27;20747;-72
2022/02/07 09:24:20;;;;;;;18.75;3.10;;;;;;;5.45;100.00;102471.31;5113871;27;20100;-71
2022/02/07 09:27:21;;;;;;;17.05;4.53;;;;;;;5.47;100.00;102488.16;5114968;27;20051;-71
2022/02/07 09:29:55;;;;;;;21.70;3.67;;;;;;;5.45;100.00;102477.53;5099803;27;20047;-72
2022/02/07 09:32:27;;;;;;;15.48;3.15;;;;;;;5.49;100.00;102482.00;5114918;27;20047;-72
2022/02/07 09:38:07;;;;;;;18.67;3.25;;;;;;;5.60;100.00;102490.09;5102763;27;20137;-72
2022/02/07 09:40:49;;;;;;;13.82;3.17;;;;;;;5.61;100.00;102500.72;5118136;27;20057;-72
2022/02/07 09:43:45;;;;;;;13.32;2.92;;;;;;;5.60;100.00;102505.97;5119321;27;20067;-72
2022/02/07 09:46:44;;;;;;;15.38;3.45;;;;;;;5.50;100.00;102514.66;5116418;27;21182;-72
2022/02/07 09:49:34;;;;;;;16.83;3.40;;;;;;;5.52;100.00;102523.53;5119992;27;20417;-72
2022/02/07 09:52:13;;;;;;;19.35;3.00;;;;;;;5.49;100.00;102531.41;5117843;27;20047;-72
2022/02/07 09:55:27;;;;;;;7.68;2.33;;;;;;;5.63;100.00;102555.47;5100040;27;20134;-72
2022/02/07 09:58:00;;;;;;;15.63;3.13;;;;;;;5.59;100.00;102557.19;5115742;27;20191;-72
2022/02/07 10:00:40;;;;;;;11.43;2.72;;;;;;;5.68;100.00;102559.97;5103334;27;20055;-72
2022/02/07 10:03:35;;;;;;;11.63;3.35;;;;;;;5.67;100.00;102584.69;5117366;27;20049;-72
2022/02/07 10:16:06;;;;;;;13.15;2.53;;;;;;;5.65;100.00;102596.09;5114385;27;20532;-74
2022/02/07 10:40:24;;;;;;;18.92;3.28;;;;;;;6.08;100.00;102640.13;5119010;27;20051;-72
2022/02/07 10:43:56;;;;;;;12.70;2.63;;;;;;;5.96;100.00;102634.63;5103097;27;20115;-75
2022/02/07 10:47:18;;;;;;;18.13;3.13;;;;;;;6.37;100.00;102639.66;5118976;27;21492;-71
2022/02/07 10:49:59;;;;;;;19.48;3.08;;;;;;;6.41;100.00;102641.47;5122458;27;20050;-77
2022/02/07 10:52:28;;;;;;;13.07;2.88;;;;;;;6.41;100.00;102633.50;5118423;27;20111;-79
2022/02/07 10:54:58;;;;;;;16.92;3.83;;;;;;;6.06;100.00;102651.53;5120015;27;20136;-79
2022/02/07 10:57:29;;;;;;;14.23;2.40;;;;;;;6.27;100.00;102646.56;5117280;27;20059;-77
2022/02/07 11:00:01;;;;;;;9.25;3.17;;;;;;;6.25;100.00;102648.31;5117802;27;20094;-79
2022/02/07 11:02:52;;;;;;;11.43;2.60;;;;;;;6.22;100.00;102642.09;5118475;27;20051;-80
2022/02/07 11:05:23;;;;;;;7.88;2.72;;;;;;;6.21;100.00;102646.47;5121194;27;20081;-79
2022/02/07 11:15:08;;;;;;;11.40;2.60;;;;;;;6.59;100.00;102635.53;5115446;27;20054;-73
2022/02/07 11:24:33;;;;;;;;;;;;;;;7.09;100.00;102645.84;5080242;27;20043;-73
2022/02/07 11:28:22;;;;;;;15.43;2.05;;;;;;;6.86;100.00;102645.59;5118230;27;19927;-74
2022/02/07 11:31:42;;;;;;;15.50;2.88;;;;;;;6.68;100.00;102637.41;5113915;27;20090;-74
2022/02/07 11:35:07;;;;;;;12.57;2.83;;;;;;;6.94;100.00;102626.22;5113918;27;20051;-74
2022/02/07 11:41:58;;;;;;;11.98;2.90;;;;;;;6.95;100.00;102615.63;5111021;27;20144;-75
2022/02/07 11:45:39;;;;;;;8.60;2.40;;;;;;;7.21;100.00;102609.69;5102078;27;20050;-72
2022/02/07 11:48:10;;;;;;;9.63;2.05;;;;;;;7.21;100.00;102625.63;5111142;27;20135;-77
2022/02/07 11:50:43;;;;;;;12.82;2.88;;;;;;;7.01;100.00;102630.72;5117804;27;20073;-77
2022/02/07 11:53:29;;;;;;;8.43;2.72;;;;;;;7.27;100.00;102626.59;5117911;27;20097;-73
2022/02/07 12:03:26;;;;;;;11.23;2.60;;;;;;;7.43;100.00;102646.22;5117944;27;20043;-73
2022/02/07 12:10:46;;;;;;;12.20;2.92;;;;;;;6.91;100.00;102638.59;5107905;27;20043;-73
2022/02/07 12:17:48;;;;;;;11.52;2.90;;;;;;;6.88;100.00;102640.31;5115280;27;20646;-71
2022/02/07 12:20:57;;;;;;;14.05;2.42;;;;;;;6.95;100.00;102655.44;5114447;27;20077;-73
2022/02/07 12:23:55;;;;;;;12.70;2.50;;;;;;;6.57;100.00;102666.44;5114483;27;20061;-73
2022/02/07 12:29:31;;;;;;;9.77;2.83;;;;;;;6.52;100.00;102673.44;5116646;27;21788;-77
2022/02/07 12:31:58;;;;;;;15.18;3.97;;;;;;;6.80;100.00;102679.13;5118353;27;20049;-77
2022/02/07 12:34:35;;;;;;;8.52;2.70;;;;;;;6.89;100.00;102666.84;5118343;27;20055;-72
2022/02/07 12:37:18;;;;;;;14.82;2.53;;;;;;;7.12;100.00;102666.25;5096135;28;20519;-78
2022/02/07 12:43:43;;;;;;;9.27;2.25;;;;;;;7.59;99.76;102668.47;5096807;28;20055;-73
2022/02/07 12:46:33;;;;;;;10.40;2.40;;;;;;;7.64;99.52;102681.81;5097132;28;20048;-78
2022/02/07 12:49:10;;;;;;;8.60;1.95;;;;;;;7.65;96.35;102683.63;5096149;28;20047;-77
2022/02/07 12:51:43;;;;;;;9.68;2.10;;;;;;;7.55;96.42;102677.31;5095273;28;20346;-78
2022/02/07 12:54:12;;;;;;;8.55;1.95;;;;;;;7.44;98.22;102682.53;5092326;28;20075;-77
2022/02/07 12:56:42;;;;;;;11.20;2.15;;;;;;;6.87;96.48;102676.56;5093489;28;20392;-78
2022/02/07 12:59:10;;;;;;;14.63;2.53;;;;;;;7.05;98.73;102683.88;5097170;28;20453;-77
2022/02/07 13:01:41;;;;;;;8.00;2.00;;;;;;;6.84;98.49;102684.47;5095757;28;20046;-77
2022/02/07 13:04:16;;;;;;;14.18;2.47;;;;;;;6.94;98.34;102681.94;5109670;27;20078;-78
2022/02/07 13:06:46;;;;;;;7.15;2.15;;;;;;;7.15;97.77;102691.91;5113270;27;20049;-77
2022/02/07 13:09:24;;;;;;;15.38;3.58;;;;;;;6.98;97.51;102689.97;5117519;27;20040;-77
2022/02/07 13:12:12;;;;;;;12.48;3.08;;;;;;;7.09;96.16;102692.75;5119890;27;20047;-77
2022/02/07 13:35:04;;;;;;;9.25;2.47;;;;;;;7.76;94.04;102703.19;5595766;22;15473734;-72
2022/02/07 13:44:12;;;;;;;11.25;2.08;;;;;;;7.75;95.84;102698.78;6248844;22;20034;-74
2022/02/07 13:50:17;;;;;;;9.68;1.92;;;;;;;7.62;95.06;102702.19;6269588;22;20058;-74
2022/02/07 13:53:19;;;;;;;11.00;3.22;;;;;;;7.58;94.35;102713.66;6271039;22;20039;-73
2022/02/07 13:56:07;;;;;;;14.38;3.10;;;;;;;7.46;95.03;102707.34;6247241;22;20035;-73
2022/02/07 13:59:35;;;;;;;15.52;2.78;;;;;;;7.59;94.68;102721.63;6216874;22;20027;-72
2022/02/07 14:02:30;;;;;;;8.55;1.90;;;;;;;7.54;93.90;102710.06;6242838;22;20094;-73
2022/02/07 14:05:08;;;;;;;11.32;2.40;;;;;;;7.44;94.94;102703.78;6243569;22;20027;-72
2022/02/07 14:08:09;;;;;;;8.57;2.00;;;;;;;7.45;96.61;102691.38;6271920;22;20311;-73
2022/02/07 14:10:52;;;;;;;5.93;1.90;;;;;;;7.41;96.98;102687.81;6270587;22;20023;-76
2022/02/07 14:13:20;;;;;;;10.38;2.35;;;;;;;7.29;97.30;102696.53;6271341;22;20035;-77
2022/02/07 14:15:49;;;;;;;5.82;1.88;;;;;;;7.36;96.31;102688.63;6270648;22;20061;-76
2022/02/07 14:18:19;;;;;;;6.93;2.22;;;;;;;7.37;95.83;102691.31;6270532;22;20423;-76
2022/02/07 14:20:47;;;;;;;13.02;2.53;;;;;;;7.41;95.49;102693.13;6271150;22;20175;-78
2022/02/07 14:23:16;;;;;;;5.05;1.85;;;;;;;7.28;95.93;102704.47;6270768;22;20027;-76
2022/02/07 14:25:47;;;;;;;8.35;2.05;;;;;;;7.35;96.91;102713.41;6271052;22;20020;-77
2022/02/07 14:31:22;;;;;;;5.43;1.80;;;;;;;7.21;95.06;102713.25;6253430;22;20059;-74
2022/02/07 14:34:07;;;;;;;9.73;2.90;;;;;;;7.23;95.81;102723.00;6263253;22;20019;-74
2022/02/07 14:40:23;;;;;;;7.45;2.40;;;;;;;7.32;96.63;102724.91;6263017;22;20062;-72
2022/02/07 14:46:08;;;;;;;8.25;2.13;;;;;;;7.16;93.74;102722.94;6263990;22;20016;-77
2022/02/07 14:49:01;;;;;;;10.02;2.88;;;;;;;7.04;94.30;102713.91;6264660;22;20150;-77
2022/02/07 14:51:32;;;;;;;13.88;2.20;;;;;;;7.10;93.64;102729.06;6265409;22;20089;-78
2022/02/07 14:53:59;;;;;;;6.20;2.20;;;;;;;6.92;94.82;102719.97;6264111;22;20316;-77
2022/02/07 14:56:27;;;;;;;10.93;2.23;;;;;;;6.98;94.60;102726.22;6264269;22;20030;-77
2022/02/07 14:58:55;;;;;;;9.65;2.30;;;;;;;6.91;94.89;102726.16;6264463;22;20111;-76
2022/02/07 15:01:23;;;;;;;10.55;3.38;;;;;;;6.89;94.42;102721.69;6263629;22;20461;-76
2022/02/07 15:03:54;;;;;;;5.97;2.17;;;;;;;6.88;93.49;102733.19;6265319;22;20224;-77
2022/02/07 15:06:23;;;;;;;8.70;2.60;;;;;;;7.03;93.70;102732.47;6264162;22;20089;-76
2022/02/07 15:08:51;;;;;;;5.60;2.05;;;;;;;6.96;93.00;102728.84;6264652;22;20024;-76
2022/02/07 15:11:19;;;;;;;6.55;1.90;;;;;;;7.00;93.56;102732.44;6265380;22;20530;-76
2022/02/07 15:13:47;;;;;;;11.00;2.00;;;;;;;6.92;93.73;102732.34;6264982;22;20409;-76
2022/02/07 15:16:15;;;;;;;10.18;2.75;;;;;;;6.73;94.29;102741.81;6263908;22;20055;-76
2022/02/07 15:18:44;;;;;;;6.18;1.83;;;;;;;6.78;94.70;102740.13;6264224;22;20024;-76
2022/02/07 15:21:12;;;;;;;9.23;1.70;;;;;;;6.75;95.39;102755.13;6262956;22;20047;-78
2022/02/07 15:23:43;;;;;;;6.65;2.22;;;;;;;6.88;94.81;102751.78;6265411;22;20077;-78
2022/02/07 15:26:12;;;;;;;7.45;2.25;;;;;;;6.82;94.81;102754.34;6263696;22;20073;-76
2022/02/07 15:28:39;;;;;;;13.80;2.10;;;;;;;6.88;93.35;102757.09;6263947;22;20055;-76
2022/02/07 15:31:07;;;;;;;6.47;1.80;;;;;;;6.54;94.35;102761.91;6263477;22;20070;-77
2022/02/07 15:33:42;;;;;;;11.10;2.25;;;;;;;6.46;96.29;102761.75;6262834;22;20027;-76
2022/02/07 15:36:48;;;;;;;10.27;1.98;;;;;;;6.16;96.79;102752.47;6262826;22;20019;-73
2022/02/07 15:39:20;;;;;;;8.93;1.90;;;;;;;6.15;98.22;102750.66;6236191;22;20413;-75
2022/02/07 15:41:48;;;;;;;6.13;1.60;;;;;;;5.91;98.02;102756.41;6262774;22;20099;-74
2022/02/07 15:44:19;;;;;;;5.57;1.95;;;;;;;5.75;99.48;102747.25;6264131;22;20396;-76
2022/02/07 15:46:47;;;;;;;8.13;2.60;;;;;;;5.71;100.00;102750.72;6262771;22;20034;-75
2022/02/07 15:49:15;;;;;;;7.70;2.13;;;;;;;5.66;99.96;102751.53;6262400;22;20019;-76